createdAt,value
2022-10-07T00:01:45.532Z,78.70
2022-10-07T00:04:14.876Z,78.80
2022-10-07T00:06:43.922Z,78.80
2022-10-07T00:09:12.941Z,78.80
2022-10-07T00:11:41.801Z,78.70
2022-10-07T00:14:10.602Z,78.70
2022-10-07T00:16:41.683Z,78.60
2022-10-07T00:19:30.399Z,78.60
2022-10-07T00:21:59.170Z,78.50
2022-10-07T00:24:28.230Z,78.60
2022-10-07T00:26:57.141Z,78.90
2022-10-07T00:29:26.246Z,78.70
2022-10-07T00:32:13.405Z,78.90
2022-10-07T00:34:43.660Z,78.90
2022-10-07T00:37:15.697Z,79.10
2022-10-07T00:39:46.030Z,79.20
2022-10-07T00:42:15.832Z,79.30
2022-10-07T00:44:46.098Z,79.30
2022-10-07T00:47:20.548Z,79.40
2022-10-07T00:49:55.847Z,79.50
2022-10-07T00:52:28.031Z,79.50
2022-10-07T00:54:59.661Z,79.50
2022-10-07T00:57:32.156Z,79.60
2022-10-07T01:00:02.189Z,79.70
2022-10-07T01:02:31.913Z,79.90
2022-10-07T01:05:05.236Z,79.90
2022-10-07T01:07:54.932Z,80.00
2022-10-07T01:10:34.028Z,80.00
2022-10-07T01:13:07.639Z,80.10
2022-10-07T01:15:40.875Z,80.20
2022-10-07T01:18:19.752Z,80.20
2022-10-07T01:20:56.150Z,80.40
2022-10-07T01:23:44.506Z,80.40
2022-10-07T01:26:41.097Z,80.50
2022-10-07T01:29:14.682Z,80.50
2022-10-07T01:31:50.135Z,80.60
2022-10-07T01:34:20.587Z,80.80
2022-10-07T01:36:53.716Z,80.80
2022-10-07T01:39:35.102Z,80.90
2022-10-07T01:42:06.712Z,81.00
2022-10-07T01:44:35.899Z,81.10
2022-10-07T01:47:05.018Z,81.20
2022-10-07T01:49:33.956Z,81.30
2022-10-07T01:52:15.749Z,81.40
2022-10-07T01:55:04.689Z,81.40
2022-10-07T01:57:42.893Z,81.50
2022-10-07T02:00:13.038Z,81.60
2022-10-07T02:03:05.070Z,81.70
2022-10-07T02:05:44.299Z,81.70
2022-10-07T02:08:33.855Z,81.70
2022-10-07T02:11:12.929Z,81.80
2022-10-07T02:13:58.112Z,81.90
2022-10-07T02:16:34.011Z,81.90
2022-10-07T02:19:08.290Z,81.90
2022-10-07T02:21:37.914Z,82.00
2022-10-07T02:24:11.220Z,81.90
2022-10-07T02:26:42.342Z,82.10
2022-10-07T02:29:16.245Z,82.10
2022-10-07T02:31:46.573Z,82.10
2022-10-07T02:34:20.102Z,82.20
2022-10-07T02:36:54.921Z,82.20
2022-10-07T02:39:23.959Z,82.30
2022-10-07T02:42:02.941Z,82.30
2022-10-07T02:44:37.624Z,82.30
2022-10-07T02:47:14.476Z,82.40
2022-10-07T02:49:46.271Z,82.40
2022-10-07T02:52:17.600Z,82.50
2022-10-07T02:54:51.360Z,82.50
2022-10-07T02:57:23.002Z,82.60
2022-10-07T02:59:54.671Z,82.60
2022-10-07T03:02:28.181Z,82.60
2022-10-07T03:04:59.146Z,82.70
2022-10-07T03:07:30.079Z,82.70
2022-10-07T03:09:59.002Z,82.70
2022-10-07T03:12:29.138Z,82.80
2022-10-07T03:14:59.585Z,82.90
2022-10-07T03:17:28.764Z,83.10
2022-10-07T03:19:58.233Z,83.20
2022-10-07T03:22:27.759Z,83.40
2022-10-07T03:24:56.475Z,83.50
2022-10-07T03:27:26.102Z,83.60
2022-10-07T03:29:55.385Z,83.80
2022-10-07T03:32:44.934Z,84.00
2022-10-07T03:35:13.706Z,84.10
2022-10-07T03:37:43.318Z,84.20
2022-10-07T03:40:12.956Z,84.30
2022-10-07T03:42:43.717Z,84.60
2022-10-07T03:45:12.765Z,84.80
2022-10-07T03:47:41.892Z,85.10
2022-10-07T03:50:12.516Z,85.20
2022-10-07T03:52:41.310Z,85.40
2022-10-07T03:55:11.089Z,85.60
2022-10-07T03:57:59.118Z,85.80
2022-10-07T04:00:30.043Z,85.90
2022-10-07T04:03:00.131Z,86.00
2022-10-07T04:05:30.504Z,86.10
2022-10-07T04:07:59.346Z,86.20
2022-10-07T04:10:28.623Z,86.30
2022-10-07T04:12:57.585Z,86.40
2022-10-07T04:15:26.600Z,86.50
2022-10-07T04:17:59.043Z,86.60
2022-10-07T04:20:31.096Z,86.70
2022-10-07T04:22:59.912Z,86.80
2022-10-07T04:25:38.719Z,86.90
2022-10-07T04:28:18.845Z,86.90
2022-10-07T04:30:54.228Z,87.00
2022-10-07T04:33:30.249Z,87.20
2022-10-07T04:36:18.134Z,87.50
2022-10-07T04:39:06.207Z,87.70
2022-10-07T04:41:43.411Z,88.00
2022-10-07T04:44:18.029Z,88.20
2022-10-07T04:47:06.660Z,88.60
2022-10-07T04:49:45.691Z,88.80
2022-10-07T04:52:16.346Z,89.00
2022-10-07T04:55:05.591Z,89.20
2022-10-07T04:57:40.247Z,89.40
2022-10-07T05:00:11.873Z,89.60
2022-10-07T05:02:40.813Z,89.60
2022-10-07T05:05:10.418Z,89.70
2022-10-07T05:07:40.704Z,89.80
2022-10-07T05:10:27.997Z,89.80
2022-10-07T05:12:57.268Z,89.90
2022-10-07T05:15:26.373Z,89.90
2022-10-07T05:17:56.108Z,89.90
2022-10-07T05:20:27.459Z,89.90
2022-10-07T05:22:59.444Z,89.80
2022-10-07T05:25:28.493Z,89.90
2022-10-07T05:27:57.280Z,89.80
2022-10-07T05:30:26.352Z,89.80
2022-10-07T05:32:56.011Z,89.80
2022-10-07T05:35:28.057Z,89.80
2022-10-07T05:37:58.591Z,89.80
2022-10-07T05:40:27.490Z,89.70
2022-10-07T05:43:05.991Z,89.70
2022-10-07T05:45:45.305Z,89.70
2022-10-07T05:48:15.546Z,89.70
2022-10-07T05:50:57.702Z,89.60
2022-10-07T05:53:28.736Z,89.60
2022-10-07T05:55:57.963Z,89.50
2022-10-07T05:58:29.017Z,89.40
2022-10-07T06:01:04.857Z,89.20
2022-10-07T06:03:35.792Z,89.00
2022-10-07T06:06:04.551Z,88.60
2022-10-07T06:08:35.058Z,88.20
2022-10-07T06:11:22.765Z,87.80
2022-10-07T06:13:53.032Z,86.90
2022-10-07T06:16:22.083Z,86.10
2022-10-07T06:18:52.769Z,85.20
2022-10-07T06:21:28.343Z,84.40
2022-10-07T06:24:03.615Z,83.30
2022-10-07T06:26:36.250Z,82.20
2022-10-07T06:29:06.247Z,80.90
2022-10-07T06:31:35.735Z,80.30
2022-10-07T06:34:06.424Z,79.60
2022-10-07T06:36:35.685Z,79.00
2022-10-07T06:39:06.190Z,78.30
2022-10-07T06:41:39.751Z,78.10
2022-10-07T06:44:40.787Z,77.70
2022-10-07T06:47:12.600Z,77.30
2022-10-07T06:49:44.220Z,77.00
2022-10-07T06:52:13.253Z,76.60
2022-10-07T06:54:44.796Z,76.50
2022-10-07T06:57:40.194Z,76.50
2022-10-07T07:00:05.334Z,76.30
2022-10-07T07:02:35.298Z,76.20
2022-10-07T07:05:08.687Z,76.10
2022-10-07T07:07:39.281Z,76.10
2022-10-07T07:10:10.688Z,76.00
2022-10-07T07:12:43.351Z,75.90
2022-10-07T07:15:12.818Z,76.00
2022-10-07T07:17:42.500Z,76.10
2022-10-07T07:20:13.595Z,76.00
2022-10-07T07:22:43.543Z,76.00
2022-10-07T07:25:14.234Z,75.90
2022-10-07T07:27:43.440Z,75.80
2022-10-07T07:30:13.908Z,75.50
2022-10-07T07:32:46.022Z,75.40
2022-10-07T07:35:15.269Z,75.40
2022-10-07T07:37:44.790Z,75.50
2022-10-07T07:40:15.137Z,75.60
2022-10-07T07:42:44.196Z,75.70
2022-10-07T07:45:13.824Z,75.70
2022-10-07T07:47:43.348Z,75.60
2022-10-07T07:50:12.665Z,75.70
2022-10-07T07:52:41.470Z,75.80
2022-10-07T07:55:11.106Z,75.90
2022-10-07T07:57:42.221Z,75.60
2022-10-07T08:00:15.139Z,75.60
2022-10-07T08:02:53.444Z,75.60
2022-10-07T08:05:24.186Z,75.70
2022-10-07T08:07:56.403Z,75.60
2022-10-07T08:10:27.234Z,75.30
2022-10-07T08:12:58.234Z,75.00
2022-10-07T08:15:27.113Z,74.80
2022-10-07T08:17:56.067Z,74.70
2022-10-07T08:20:24.913Z,74.60
2022-10-07T08:22:58.801Z,74.50
2022-10-07T08:25:29.794Z,74.40
2022-10-07T08:28:03.596Z,74.40
2022-10-07T08:30:34.074Z,74.40
2022-10-07T08:33:03.081Z,74.70
2022-10-07T08:35:31.739Z,74.80
2022-10-07T08:38:00.438Z,74.90
2022-10-07T08:40:29.367Z,74.90
2022-10-07T08:42:59.629Z,74.90
2022-10-07T08:45:33.789Z,74.90
2022-10-07T08:48:08.355Z,75.20
2022-10-07T08:50:46.313Z,75.20
2022-10-07T08:53:21.249Z,75.00
2022-10-07T08:55:55.216Z,74.90
2022-10-07T08:58:43.519Z,74.80
2022-10-07T09:01:28.188Z,74.70
2022-10-07T09:04:04.027Z,74.60
2022-10-07T09:06:37.387Z,74.50
2022-10-07T09:09:29.051Z,74.50
2022-10-07T09:12:00.918Z,74.40
2022-10-07T09:14:32.476Z,74.40
2022-10-07T09:17:07.933Z,74.30
2022-10-07T09:19:42.752Z,74.40
2022-10-07T09:22:19.637Z,74.40
2022-10-07T09:24:49.608Z,74.30
2022-10-07T09:27:23.192Z,74.20
2022-10-07T09:29:52.189Z,74.20
2022-10-07T09:32:23.155Z,74.20
2022-10-07T09:34:52.454Z,74.30
2022-10-07T09:37:23.637Z,74.30
2022-10-07T09:39:53.678Z,74.20
2022-10-07T09:42:35.420Z,74.20
2022-10-07T09:45:18.791Z,74.10
2022-10-07T09:47:53.936Z,74.30
2022-10-07T09:50:37.266Z,74.30
2022-10-07T09:53:07.682Z,74.20
2022-10-07T09:55:42.345Z,74.40
2022-10-07T09:58:19.972Z,74.30
2022-10-07T10:00:50.424Z,74.20
2022-10-07T10:03:21.303Z,74.30
2022-10-07T10:05:57.633Z,74.40
2022-10-07T10:08:29.892Z,74.30
2022-10-07T10:11:01.525Z,74.30
2022-10-07T10:13:33.767Z,74.30
2022-10-07T10:16:03.803Z,74.30
2022-10-07T10:18:59.059Z,74.30
2022-10-07T10:21:30.777Z,74.20
2022-10-07T10:24:01.081Z,74.20
2022-10-07T10:26:56.710Z,74.20
2022-10-07T10:29:45.179Z,74.10
2022-10-07T10:32:43.345Z,74.10
2022-10-07T10:35:17.002Z,74.00
2022-10-07T10:38:04.444Z,74.20
2022-10-07T10:40:39.627Z,74.40
2022-10-07T10:43:27.831Z,74.50
2022-10-07T10:46:21.712Z,74.60
2022-10-07T10:48:57.029Z,74.50
2022-10-07T10:51:48.276Z,74.60
2022-10-07T10:54:26.564Z,74.80
2022-10-07T10:57:03.451Z,75.10
2022-10-07T10:59:55.382Z,75.30
2022-10-07T11:02:49.168Z,75.40
2022-10-07T11:05:23.828Z,75.60
2022-10-07T11:07:59.765Z,75.70
2022-10-07T11:10:36.225Z,76.20
2022-10-07T11:13:19.271Z,75.60
2022-10-07T11:15:53.826Z,75.40
2022-10-07T11:18:28.886Z,75.30
2022-10-07T11:21:00.017Z,75.80
2022-10-07T11:23:43.103Z,75.80
2022-10-07T11:26:19.263Z,75.10
2022-10-07T11:28:51.209Z,75.00
2022-10-07T11:31:28.360Z,73.90
2022-10-07T11:34:13.822Z,72.70
2022-10-07T11:36:52.877Z,72.00
2022-10-07T11:39:24.395Z,71.40
2022-10-07T11:41:59.702Z,71.30
2022-10-07T11:44:34.244Z,71.10
2022-10-07T11:47:06.073Z,70.80
2022-10-07T11:49:39.223Z,70.60
2022-10-07T11:52:10.994Z,70.50
2022-10-07T11:54:54.739Z,70.40
2022-10-07T11:57:26.783Z,71.30
2022-10-07T12:00:00.478Z,70.80
2022-10-07T12:02:41.874Z,70.80
2022-10-07T12:05:55.928Z,70.90
2022-10-07T12:08:33.525Z,71.00
2022-10-07T12:11:41.635Z,71.10
2022-10-07T12:14:35.928Z,71.20
2022-10-07T12:17:30.619Z,71.30
2022-10-07T12:20:45.295Z,71.30
2022-10-07T12:23:43.693Z,71.60
2022-10-07T12:26:46.738Z,71.80
2022-10-07T12:29:51.073Z,72.00
2022-10-07T12:32:43.260Z,72.10
2022-10-07T12:35:53.058Z,71.90
2022-10-07T12:38:28.360Z,71.70
2022-10-07T12:41:23.420Z,71.60
2022-10-07T12:44:00.750Z,71.70
2022-10-07T12:46:35.725Z,71.60
2022-10-07T12:49:14.673Z,71.50
2022-10-07T12:51:46.050Z,71.50
2022-10-07T12:54:20.448Z,71.60
2022-10-07T12:56:51.042Z,71.70
2022-10-07T12:59:51.395Z,71.80
2022-10-07T13:02:54.900Z,72.00
2022-10-07T13:06:05.523Z,72.20
2022-10-07T13:09:09.955Z,72.40
2022-10-07T13:11:59.977Z,72.70
2022-10-07T13:14:38.081Z,73.20
2022-10-07T13:17:22.725Z,74.00
2022-10-07T13:20:00.856Z,74.50
2022-10-07T13:22:30.989Z,74.90
2022-10-07T13:25:02.972Z,75.30
2022-10-07T13:27:34.721Z,75.70
2022-10-07T13:30:07.865Z,76.20
2022-10-07T13:32:37.427Z,76.80
2022-10-07T13:35:25.001Z,77.10
2022-10-07T13:37:54.154Z,78.00
2022-10-07T13:40:26.640Z,78.30
2022-10-07T13:42:56.825Z,78.70
2022-10-07T13:45:28.548Z,78.90
2022-10-07T13:47:58.423Z,79.40
2022-10-07T13:50:30.947Z,79.90
2022-10-07T13:53:01.272Z,80.30
2022-10-07T13:55:32.036Z,80.60
2022-10-07T13:58:04.610Z,80.90
2022-10-07T14:00:37.412Z,81.30
2022-10-07T14:03:15.115Z,81.70
2022-10-07T14:05:52.209Z,81.80
2022-10-07T14:08:22.917Z,82.00
2022-10-07T14:10:55.266Z,82.20
2022-10-07T14:13:24.683Z,82.50
2022-10-07T14:15:57.930Z,82.80
2022-10-07T14:18:45.878Z,83.20
2022-10-07T14:21:17.568Z,83.50
2022-10-07T14:23:48.077Z,83.90
2022-10-07T14:26:19.274Z,84.00
2022-10-07T14:28:48.240Z,84.30
2022-10-07T14:31:54.829Z,84.30
2022-10-07T14:34:40.724Z,84.60
2022-10-07T14:37:31.681Z,84.90
2022-10-07T14:40:00.593Z,85.10
2022-10-07T14:42:33.575Z,85.40
2022-10-07T14:45:04.838Z,85.80
2022-10-07T14:47:53.823Z,86.00
2022-10-07T14:50:23.356Z,86.20
2022-10-07T14:52:53.463Z,86.30
2022-10-07T14:55:25.345Z,86.40
2022-10-07T14:57:55.474Z,86.70
2022-10-07T15:00:26.363Z,86.90
2022-10-07T15:02:57.022Z,87.00
2022-10-07T15:05:26.663Z,87.10
2022-10-07T15:07:55.490Z,87.30
2022-10-07T15:10:26.784Z,87.70
2022-10-07T15:12:57.007Z,87.90
2022-10-07T15:15:25.813Z,88.10
2022-10-07T15:17:56.565Z,88.30
2022-10-07T15:20:25.259Z,88.50
2022-10-07T15:22:54.067Z,88.60
2022-10-07T15:25:22.893Z,88.70
2022-10-07T15:27:51.946Z,88.80
2022-10-07T15:30:21.251Z,89.00
2022-10-07T15:32:49.987Z,89.10
2022-10-07T15:35:20.957Z,89.30
2022-10-07T15:37:49.632Z,89.60
2022-10-07T15:40:18.846Z,89.80
2022-10-07T15:42:48.038Z,89.90
2022-10-07T15:45:17.253Z,90.00
2022-10-07T15:47:46.142Z,90.10
2022-10-07T15:50:16.437Z,90.20
2022-10-07T15:52:46.704Z,90.20
2022-10-07T15:55:16.543Z,90.30
2022-10-07T15:57:45.529Z,90.40
2022-10-07T16:00:15.777Z,90.50
2022-10-07T16:02:45.226Z,90.70
2022-10-07T16:05:15.479Z,90.80
2022-10-07T16:07:45.807Z,90.90
2022-10-07T16:10:14.833Z,91.10
2022-10-07T16:12:43.958Z,91.10
2022-10-07T16:15:13.120Z,91.20
2022-10-07T16:17:41.809Z,91.40
2022-10-07T16:20:11.695Z,91.50
2022-10-07T16:22:40.568Z,91.50
2022-10-07T16:25:11.227Z,91.70
2022-10-07T16:27:57.775Z,91.80
2022-10-07T16:30:49.359Z,91.90
2022-10-07T16:33:19.151Z,92.00
2022-10-07T16:35:47.883Z,92.10
2022-10-07T16:38:16.734Z,92.30
2022-10-07T16:40:56.079Z,92.40
2022-10-07T16:43:24.928Z,92.50
2022-10-07T16:45:53.662Z,92.60
2022-10-07T16:48:22.468Z,92.70
2022-10-07T16:50:51.308Z,92.80
2022-10-07T16:53:20.031Z,92.90
2022-10-07T16:55:49.040Z,93.00
2022-10-07T16:58:19.379Z,93.10
2022-10-07T17:00:48.248Z,93.20
2022-10-07T17:03:17.076Z,93.30
2022-10-07T17:05:45.740Z,93.40
2022-10-07T17:08:14.528Z,93.50
2022-10-07T17:10:43.461Z,93.60
2022-10-07T17:13:12.857Z,93.70
2022-10-07T17:15:43.103Z,93.80
2022-10-07T17:18:12.673Z,93.90
2022-10-07T17:20:41.983Z,94.00
2022-10-07T17:23:10.978Z,94.00
2022-10-07T17:25:40.459Z,94.10
2022-10-07T17:28:09.344Z,94.10
2022-10-07T17:30:38.062Z,94.20
2022-10-07T17:33:09.012Z,94.20
2022-10-07T17:35:38.421Z,94.30
2022-10-07T17:38:07.146Z,94.30
2022-10-07T17:40:36.922Z,94.30
2022-10-07T17:43:08.054Z,94.40
2022-10-07T17:45:37.342Z,94.50
2022-10-07T17:48:08.675Z,94.50
2022-10-07T17:50:39.464Z,94.60
2022-10-07T17:53:08.423Z,94.60
2022-10-07T17:55:37.867Z,94.70
2022-10-07T17:58:06.635Z,94.80
2022-10-07T18:00:35.489Z,94.90
2022-10-07T18:03:05.654Z,95.10
2022-10-07T18:05:35.864Z,95.10
2022-10-07T18:08:04.647Z,95.20
2022-10-07T18:10:33.368Z,95.30
2022-10-07T18:13:19.715Z,95.30
2022-10-07T18:15:59.074Z,95.40
2022-10-07T18:18:28.473Z,95.40
2022-10-07T18:21:17.326Z,95.50
2022-10-07T18:23:46.065Z,95.60
2022-10-07T18:26:14.898Z,95.70
2022-10-07T18:28:44.050Z,95.90
2022-10-07T18:31:14.909Z,96.10
2022-10-07T18:33:43.730Z,96.20
2022-10-07T18:36:15.309Z,96.40
2022-10-07T18:38:46.581Z,96.60
2022-10-07T18:41:17.893Z,96.60
2022-10-07T18:43:47.200Z,96.70
2022-10-07T18:46:18.660Z,96.80
2022-10-07T18:48:49.326Z,96.90
2022-10-07T18:51:37.667Z,97.00
2022-10-07T18:54:08.026Z,97.00
2022-10-07T18:56:40.888Z,97.10
2022-10-07T18:59:13.207Z,97.10
2022-10-07T19:01:44.388Z,97.20
2022-10-07T19:04:16.740Z,97.30
2022-10-07T19:06:46.393Z,97.40
2022-10-07T19:09:18.551Z,97.50
2022-10-07T19:11:47.791Z,97.60
2022-10-07T19:14:15.739Z,97.50
2022-10-07T19:16:46.174Z,97.60
2022-10-07T19:19:17.272Z,97.80
2022-10-07T19:21:47.713Z,97.90
2022-10-07T19:24:19.347Z,97.80
2022-10-07T19:26:50.306Z,98.00
2022-10-07T19:29:19.477Z,98.10
2022-10-07T19:31:50.197Z,98.30
2022-10-07T19:34:21.005Z,98.30
2022-10-07T19:36:50.725Z,98.50
2022-10-07T19:39:23.456Z,98.50
2022-10-07T19:41:52.336Z,98.70
2022-10-07T19:44:21.311Z,98.80
2022-10-07T19:46:52.624Z,98.90
2022-10-07T19:49:22.405Z,99.10
2022-10-07T19:51:51.304Z,99.20
2022-10-07T19:54:21.499Z,99.30
2022-10-07T19:56:50.250Z,99.40
2022-10-07T19:59:19.286Z,99.50
2022-10-07T20:01:49.887Z,99.50
2022-10-07T20:04:37.382Z,99.60
2022-10-07T20:07:06.141Z,99.60
2022-10-07T20:09:36.365Z,99.70
2022-10-07T20:12:05.634Z,99.80
2022-10-07T20:14:35.510Z,99.90
2022-10-07T20:17:04.463Z,99.90
2022-10-07T20:19:33.421Z,99.90
2022-10-07T20:22:03.511Z,99.90
2022-10-07T20:24:32.631Z,99.90
2022-10-07T20:27:04.247Z,99.90
2022-10-07T20:29:33.130Z,99.90
2022-10-07T20:32:02.243Z,99.90
2022-10-07T20:34:31.117Z,99.90
2022-10-07T20:37:00.232Z,99.90
2022-10-07T20:39:46.542Z,99.90
2022-10-07T20:42:24.711Z,99.90
2022-10-07T20:44:54.375Z,99.90
2022-10-07T20:47:25.005Z,99.90
2022-10-07T20:50:12.700Z,99.90
2022-10-07T20:52:41.477Z,99.90
2022-10-07T20:55:11.739Z,99.90
2022-10-07T20:57:42.010Z,99.90
2022-10-07T21:00:16.495Z,99.90
2022-10-07T21:02:46.049Z,99.90
2022-10-07T21:05:33.761Z,99.90
2022-10-07T21:08:02.892Z,99.90
2022-10-07T21:10:32.920Z,99.90
2022-10-07T21:13:03.184Z,99.90
2022-10-07T21:15:32.053Z,99.90
2022-10-07T21:18:00.843Z,99.90
2022-10-07T21:20:29.659Z,99.90
2022-10-07T21:22:58.480Z,99.90
2022-10-07T21:25:27.195Z,99.90
2022-10-07T21:27:55.982Z,99.90
2022-10-07T21:30:26.381Z,99.90
2022-10-07T21:32:55.255Z,99.90
2022-10-07T21:35:24.028Z,99.90
2022-10-07T21:37:52.810Z,99.90
2022-10-07T21:40:21.944Z,99.90
2022-10-07T21:42:50.742Z,99.90
2022-10-07T21:45:19.526Z,99.90
2022-10-07T21:47:50.754Z,99.90
2022-10-07T21:50:19.997Z,99.90
2022-10-07T21:52:49.160Z,99.90
2022-10-07T21:55:18.361Z,99.90
2022-10-07T21:57:47.212Z,99.90
2022-10-07T22:00:17.430Z,99.90
2022-10-07T22:02:46.621Z,99.90
2022-10-07T22:05:17.723Z,99.90
2022-10-07T22:08:22.227Z,99.90
2022-10-07T22:10:51.635Z,99.90
2022-10-07T22:13:20.589Z,99.90
2022-10-07T22:15:50.369Z,99.90
2022-10-07T22:18:19.447Z,99.90
2022-10-07T22:20:49.841Z,99.90
2022-10-07T22:23:20.097Z,99.90
2022-10-07T22:25:49.358Z,99.90
2022-10-07T22:28:18.252Z,99.90
2022-10-07T22:30:47.120Z,99.90
2022-10-07T22:33:15.969Z,99.90
2022-10-07T22:35:44.727Z,99.90
2022-10-07T22:38:14.871Z,99.90
2022-10-07T22:40:44.504Z,99.90
2022-10-07T22:43:13.327Z,99.90
2022-10-07T22:45:43.491Z,99.90
2022-10-07T22:48:12.182Z,99.90
2022-10-07T22:50:42.673Z,99.90
2022-10-07T22:53:11.629Z,99.90
2022-10-07T22:55:41.743Z,99.90
2022-10-07T22:58:10.890Z,99.90
2022-10-07T23:00:39.675Z,99.90
2022-10-07T23:03:11.139Z,99.90
2022-10-07T23:05:39.960Z,99.90
2022-10-07T23:08:08.959Z,99.90
2022-10-07T23:10:37.761Z,99.90
2022-10-07T23:13:08.166Z,99.90
2022-10-07T23:15:36.958Z,99.90
2022-10-07T23:18:06.207Z,99.90
2022-10-07T23:20:34.829Z,99.90
2022-10-07T23:23:03.541Z,99.90
2022-10-07T23:25:32.221Z,99.90
2022-10-07T23:28:01.054Z,99.90
2022-10-07T23:30:31.359Z,99.90
2022-10-07T23:33:00.100Z,99.90
2022-10-07T23:35:32.709Z,99.90
2022-10-07T23:38:01.739Z,99.90
2022-10-07T23:40:30.424Z,99.90
2022-10-07T23:42:59.329Z,99.90
2022-10-07T23:45:28.046Z,99.90
2022-10-07T23:47:58.165Z,99.90
2022-10-07T23:50:27.982Z,99.90
2022-10-07T23:52:56.856Z,99.90
2022-10-07T23:55:25.592Z,99.90
2022-10-07T23:57:54.504Z,99.90
